Time;durP1;ratioP1;P1;durP2;ratioP2;P2;SDS_P1;SDS_P2;PMS_P1;PMS_P2;Temp;Humidity;BMP_temperature;BMP_pressure;BME280_temperature;BME280_humidity;BME280_pressure;Samples;Min_cycle;Max_cycle;Signal;HPM_P1;HPM_P2
2023/11/28 00:01:03;;;;;;;28.20;14.10;;;;;;;0.36;97.19;99149.44;5092963;28;20024;-68
2023/11/28 00:03:29;;;;;;;25.95;14.60;;;;;;;0.41;96.33;99124.66;5100822;28;20111;-68
2023/11/28 00:05:55;;;;;;;26.02;14.65;;;;;;;0.38;95.34;99127.97;5104050;27;20024;-68
2023/11/28 00:08:20;;;;;;;30.77;15.70;;;;;;;0.07;96.55;99129.91;5114971;28;20509;-68
2023/11/28 00:10:47;;;;;;;33.85;15.43;;;;;;;0.28;97.04;99136.22;5094585;28;20028;-68
2023/11/28 00:13:13;;;;;;;34.10;15.15;;;;;;;0.27;96.53;99134.56;5110126;28;20046;-68
2023/11/28 00:15:38;;;;;;;25.92;14.27;;;;;;;0.39;95.74;99132.38;5113897;28;20539;-68
2023/11/28 00:18:04;;;;;;;27.10;14.40;;;;;;;0.43;95.66;99134.56;5094864;28;20032;-68
2023/11/28 00:20:29;;;;;;;23.27;13.80;;;;;;;-0.39;97.33;99144.34;5110769;28;20022;-68
2023/11/28 00:22:55;;;;;;;34.15;17.40;;;;;;;-0.12;98.96;99132.31;5091174;28;20028;-68
2023/11/28 00:25:20;;;;;;;41.58;17.75;;;;;;;-0.09;98.95;99142.78;5113791;28;20024;-68
2023/11/28 00:27:46;;;;;;;35.42;16.45;;;;;;;-0.05;98.01;99141.97;5113327;28;20112;-68
2023/11/28 00:30:13;;;;;;;30.40;15.45;;;;;;;-0.10;98.71;99130.16;5096096;28;20023;-68
2023/11/28 00:32:38;;;;;;;23.75;14.38;;;;;;;0.09;99.02;99123.00;5110719;28;20019;-68
2023/11/28 00:35:04;;;;;;;31.92;15.85;;;;;;;0.21;98.38;99124.66;5109877;28;20068;-68
2023/11/28 00:37:30;;;;;;;36.55;15.40;;;;;;;-0.35;100.00;99120.75;5113404;28;20024;-68
2023/11/28 00:39:55;;;;;;;36.95;15.98;;;;;;;0.10;100.00;99108.16;5109830;28;20077;-68
2023/11/28 00:42:21;;;;;;;46.72;16.20;;;;;;;0.20;100.00;99103.75;5093860;28;20044;-68
2023/11/28 00:44:46;;;;;;;28.58;15.18;;;;;;;-0.24;100.00;99105.09;5075222;28;20507;-68
2023/11/28 00:47:12;;;;;;;21.88;13.52;;;;;;;-0.45;100.00;99103.13;5113297;28;20032;-68
2023/11/28 00:49:42;;;;;;;23.33;14.02;;;;;;;-0.51;100.00;99109.69;5114230;28;20076;-68
2023/11/28 00:52:08;;;;;;;17.75;11.40;;;;;;;-0.41;100.00;99105.34;5112890;28;20487;-68
2023/11/28 00:54:33;;;;;;;23.83;12.57;;;;;;;-0.37;100.00;99107.28;5114095;28;20024;-68
2023/11/28 00:57:00;;;;;;;22.13;10.57;;;;;;;-0.19;100.00;99102.34;5109477;28;20047;-68
2023/11/28 00:59:26;;;;;;;18.35;10.45;;;;;;;-0.15;100.00;99096.03;5109563;28;20483;-68
2023/11/28 01:01:52;;;;;;;17.95;10.13;;;;;;;0.04;100.00;99095.50;5111864;28;20024;-68
2023/11/28 01:04:18;;;;;;;19.95;10.88;;;;;;;0.12;100.00;99094.97;5078991;28;20023;-68
2023/11/28 01:06:43;;;;;;;17.75;10.82;;;;;;;-0.06;100.00;99090.84;5100525;28;20081;-68
2023/11/28 01:09:09;;;;;;;19.13;11.32;;;;;;;0.07;100.00;99099.66;5095731;28;20023;-68
2023/11/28 01:11:34;;;;;;;17.67;10.25;;;;;;;0.10;100.00;99085.34;5103660;28;20564;-68
2023/11/28 01:14:00;;;;;;;17.65;11.07;;;;;;;0.05;100.00;99083.41;5091491;28;20027;-68
2023/11/28 01:16:26;;;;;;;18.63;11.20;;;;;;;-0.01;100.00;99070.72;5100489;28;20016;-68
2023/11/28 01:18:51;;;;;;;17.50;11.18;;;;;;;0.01;100.00;99068.56;5092235;28;20046;-68
2023/11/28 01:21:17;;;;;;;20.90;11.60;;;;;;;-0.12;100.00;99071.81;5112218;28;20024;-68
2023/11/28 01:23:43;;;;;;;18.13;10.98;;;;;;;-0.01;100.00;99074.31;5112677;28;20056;-68
2023/11/28 01:26:08;;;;;;;14.60;9.77;;;;;;;-0.01;100.00;99071.56;5108361;28;20049;-68
2023/11/28 01:28:34;;;;;;;18.58;10.77;;;;;;;0.00;100.00;99069.66;5097854;28;20514;-68
2023/11/28 01:31:00;;;;;;;18.20;10.98;;;;;;;-0.02;100.00;99052.59;5110732;28;20023;-68
2023/11/28 01:33:25;;;;;;;19.83;11.77;;;;;;;-0.19;100.00;99053.69;5112331;28;20076;-68
2023/11/28 01:35:50;;;;;;;21.83;13.68;;;;;;;-0.05;100.00;99042.16;5099495;28;20100;-68
2023/11/28 01:38:16;;;;;;;23.00;13.45;;;;;;;0.08;100.00;99035.28;5092967;28;20024;-68
2023/11/28 01:40:41;;;;;;;21.98;13.85;;;;;;;0.20;100.00;99030.31;5110220;28;20051;-68
2023/11/28 01:43:07;;;;;;;22.10;13.63;;;;;;;0.35;100.00;99023.13;5112125;28;20035;-68
2023/11/28 01:45:32;;;;;;;25.05;15.73;;;;;;;0.03;100.00;99027.84;5089531;28;20506;-68
2023/11/28 01:47:58;;;;;;;28.20;14.85;;;;;;;0.09;100.00;99037.75;5108592;28;20560;-68
2023/11/28 01:50:24;;;;;;;28.95;13.40;;;;;;;0.23;100.00;99035.25;5109561;28;20027;-68
2023/11/28 01:52:50;;;;;;;24.67;14.88;;;;;;;0.27;100.00;99039.09;5112344;28;20023;-68
2023/11/28 01:55:17;;;;;;;31.00;15.95;;;;;;;0.42;100.00;99023.66;5111533;28;20023;-68
2023/11/28 01:57:42;;;;;;;22.60;14.63;;;;;;;0.48;100.00;99018.97;5110580;28;20406;-68
2023/11/28 02:00:09;;;;;;;22.58;13.75;;;;;;;0.49;100.00;99023.41;5112522;28;20103;-68
2023/11/28 02:02:35;;;;;;;21.08;13.20;;;;;;;0.48;100.00;99013.47;5107750;28;20058;-68
2023/11/28 02:05:01;;;;;;;28.30;15.57;;;;;;;0.37;100.00;99015.44;5091862;28;20021;-68
2023/11/28 02:07:26;;;;;;;24.63;14.30;;;;;;;0.46;100.00;99016.50;5108957;28;20038;-68
2023/11/28 02:09:52;;;;;;;21.48;13.57;;;;;;;0.49;100.00;99004.13;5111858;28;20102;-68
2023/11/28 02:12:17;;;;;;;21.13;13.10;;;;;;;0.33;100.00;98995.88;5111810;28;20051;-68
2023/11/28 02:14:44;;;;;;;24.88;13.27;;;;;;;0.38;100.00;99009.66;5107214;28;20095;-68
2023/11/28 02:17:10;;;;;;;42.00;25.63;;;;;;;0.37;100.00;98996.16;5109932;28;20035;-68
2023/11/28 02:19:35;;;;;;;27.00;15.25;;;;;;;0.53;100.00;99021.72;5090170;28;20058;-68
2023/11/28 02:22:01;;;;;;;40.20;18.73;;;;;;;0.59;99.72;99004.06;5107290;28;20027;-68
2023/11/28 02:24:29;;;;;;;30.88;16.67;;;;;;;0.37;100.00;99002.50;5111534;28;20557;-68
2023/11/28 02:26:54;;;;;;;28.88;16.17;;;;;;;0.49;99.62;99009.63;5092688;28;20115;-68
2023/11/28 02:29:20;;;;;;;27.63;14.82;;;;;;;0.28;100.00;98993.16;5112235;28;20027;-68
2023/11/28 02:31:45;;;;;;;27.75;16.35;;;;;;;0.34;100.00;98997.53;5093704;28;20042;-68
2023/11/28 02:34:11;;;;;;;30.60;15.88;;;;;;;0.25;100.00;98994.53;5093991;28;20019;-68
2023/11/28 02:36:36;;;;;;;28.02;15.93;;;;;;;0.47;100.00;98998.88;5102385;28;20032;-68
2023/11/28 02:39:02;;;;;;;28.77;16.30;;;;;;;0.11;100.00;98986.03;5092150;28;20023;-68
2023/11/28 02:41:28;;;;;;;33.60;17.83;;;;;;;0.15;100.00;99005.56;5092202;28;20141;-68
2023/11/28 02:43:53;;;;;;;39.35;20.42;;;;;;;0.30;100.00;98995.63;5112001;28;20037;-68
2023/11/28 02:46:19;;;;;;;36.53;20.45;;;;;;;0.50;100.00;99000.28;5110052;28;20050;-68
2023/11/28 02:48:46;;;;;;;41.63;19.95;;;;;;;0.56;100.00;98999.13;5091492;28;20019;-68
2023/11/28 02:51:11;;;;;;;52.38;25.17;;;;;;;0.24;100.00;98986.53;5087675;28;20019;-68
2023/11/28 02:53:38;;;;;;;39.08;22.83;;;;;;;0.38;100.00;98976.63;5110374;28;20023;-68
2023/11/28 02:56:04;;;;;;;43.53;22.90;;;;;;;0.53;100.00;98978.50;5091724;28;20092;-68
2023/11/28 02:58:30;;;;;;;41.25;22.45;;;;;;;0.66;100.00;98963.31;5091750;28;20035;-68
2023/11/28 03:00:55;;;;;;;42.80;24.48;;;;;;;0.10;100.00;98967.06;5108747;28;20024;-68
2023/11/28 03:03:21;;;;;;;52.17;26.27;;;;;;;-0.17;100.00;98966.25;5101805;28;20123;-68
2023/11/28 03:05:46;;;;;;;44.58;24.08;;;;;;;0.08;100.00;98961.81;5110696;28;20031;-68
2023/11/28 03:08:12;;;;;;;45.22;25.33;;;;;;;0.04;100.00;98954.41;5091879;28;20034;-68
2023/11/28 03:10:37;;;;;;;41.58;23.65;;;;;;;0.15;100.00;98949.72;5110152;28;20035;-68
2023/11/28 03:13:03;;;;;;;43.55;24.23;;;;;;;0.38;100.00;98940.03;5110702;28;20062;-68
2023/11/28 03:15:28;;;;;;;46.55;24.35;;;;;;;0.48;100.00;98937.25;5091307;28;20027;-68
2023/11/28 03:17:54;;;;;;;41.55;23.60;;;;;;;0.56;100.00;98933.06;5091856;28;20024;-68
2023/11/28 03:20:19;;;;;;;44.75;24.05;;;;;;;0.54;100.00;98905.00;5089865;28;20062;-68
2023/11/28 03:22:45;;;;;;;49.15;25.58;;;;;;;0.42;100.00;98897.06;5092163;28;20100;-68
2023/11/28 03:25:13;;;;;;;43.08;24.50;;;;;;;0.63;100.00;98902.50;5110498;28;20104;-68
2023/11/28 03:27:39;;;;;;;116.20;64.05;;;;;;;0.66;100.00;98897.25;5109359;28;20051;-68
2023/11/28 03:30:05;;;;;;;59.47;32.28;;;;;;;0.73;100.00;98904.38;5110645;28;20058;-68
2023/11/28 03:32:30;;;;;;;59.65;28.48;;;;;;;0.74;100.00;98895.03;5091676;28;20036;-68
2023/11/28 03:34:56;;;;;;;59.47;30.23;;;;;;;0.77;100.00;98899.94;5110062;28;20023;-68
2023/11/28 03:37:22;;;;;;;55.70;29.10;;;;;;;0.82;100.00;98894.41;5093999;28;20089;-68
2023/11/28 03:39:47;;;;;;;62.38;29.80;;;;;;;0.83;100.00;98902.38;5114231;28;20020;-68
2023/11/28 03:42:13;;;;;;;46.88;27.27;;;;;;;0.84;100.00;98900.44;5095672;28;20457;-68
2023/11/28 03:44:38;;;;;;;57.28;27.63;;;;;;;0.87;100.00;98899.06;5096336;28;20453;-68
2023/11/28 03:47:04;;;;;;;50.67;26.02;;;;;;;0.84;100.00;98887.50;5086689;28;20035;-68
2023/11/28 03:49:31;;;;;;;47.95;25.63;;;;;;;0.82;100.00;98899.91;5114545;28;20024;-68
2023/11/28 03:51:56;;;;;;;45.80;24.75;;;;;;;0.72;100.00;98913.72;5111366;28;20024;-69
2023/11/28 03:54:22;;;;;;;45.80;23.70;;;;;;;-0.32;100.00;98900.31;5092826;28;20084;-68
2023/11/28 03:56:47;;;;;;;38.17;22.70;;;;;;;-0.09;100.00;98907.13;5107632;28;20032;-68
2023/11/28 03:59:13;;;;;;;49.33;27.50;;;;;;;0.03;100.00;98887.59;5114320;28;20059;-68
2023/11/28 04:01:38;;;;;;;45.13;24.25;;;;;;;0.26;100.00;98886.13;5114327;28;20518;-68
2023/11/28 04:04:04;;;;;;;40.10;23.05;;;;;;;0.19;100.00;98884.78;5115040;28;20352;-68
2023/11/28 04:06:30;;;;;;;47.50;24.63;;;;;;;0.41;100.00;98896.25;5113951;28;20031;-68
2023/11/28 04:08:55;;;;;;;46.47;24.92;;;;;;;0.53;100.00;98915.19;5111543;28;20027;-68
2023/11/28 04:11:21;;;;;;;39.60;23.15;;;;;;;0.36;100.00;98893.53;5082949;28;20023;-68
2023/11/28 04:13:50;;;;;;;39.35;24.10;;;;;;;0.26;100.00;98886.13;5114545;28;20034;-68
2023/11/28 04:16:19;;;;;;;39.17;24.00;;;;;;;0.34;100.00;98884.72;5113679;28;20187;-68
2023/11/28 04:18:50;;;;;;;39.90;24.42;;;;;;;0.21;100.00;98877.06;5114828;28;20103;-68
2023/11/28 04:21:19;;;;;;;44.35;26.42;;;;;;;-0.09;100.00;98873.34;5114329;28;20028;-68
2023/11/28 04:23:45;;;;;;;40.47;25.40;;;;;;;-0.27;100.00;98867.31;5114754;28;20015;-68
2023/11/28 04:26:11;;;;;;;42.22;24.30;;;;;;;-0.20;100.00;98851.34;5094672;28;20491;-68
2023/11/28 04:28:36;;;;;;;39.92;20.65;;;;;;;-0.16;100.00;98855.19;5095927;28;20053;-68
2023/11/28 04:31:02;;;;;;;34.50;20.05;;;;;;;-0.31;100.00;98846.97;5095645;28;20468;-68
2023/11/28 04:33:28;;;;;;;39.15;20.23;;;;;;;-0.27;100.00;98844.50;5114485;28;20027;-68
2023/11/28 04:35:53;;;;;;;30.17;17.23;;;;;;;-0.34;100.00;98855.78;5100555;28;20026;-68
2023/11/28 04:38:19;;;;;;;22.58;13.40;;;;;;;-0.46;100.00;98839.59;5113669;28;20015;-68
2023/11/28 04:40:44;;;;;;;23.55;14.50;;;;;;;-0.50;100.00;98833.00;5113824;28;20401;-68
2023/11/28 04:43:09;;;;;;;19.13;11.32;;;;;;;-0.39;100.00;98831.06;5105309;28;20031;-68
2023/11/28 04:45:35;;;;;;;24.08;11.48;;;;;;;-0.12;100.00;98824.38;5112806;28;20027;-68
2023/11/28 04:48:01;;;;;;;20.80;11.80;;;;;;;0.02;100.00;98828.22;5094103;28;20031;-68
2023/11/28 04:50:27;;;;;;;21.08;11.63;;;;;;;0.18;100.00;98839.13;5116704;27;20027;-68
2023/11/28 04:52:52;;;;;;;21.45;14.05;;;;;;;0.23;100.00;98828.94;5111065;28;20019;-68
2023/11/28 04:55:18;;;;;;;26.98;14.98;;;;;;;0.21;100.00;98842.16;5112627;28;20502;-68
2023/11/28 04:57:43;;;;;;;21.63;12.88;;;;;;;0.33;100.00;98838.25;5111837;28;20023;-68
2023/11/28 05:00:09;;;;;;;21.55;13.80;;;;;;;0.33;100.00;98830.00;5113039;28;20104;-68
2023/11/28 05:02:35;;;;;;;23.67;12.90;;;;;;;0.21;100.00;98819.31;5092439;28;20032;-68
2023/11/28 05:05:00;;;;;;;19.85;12.00;;;;;;;0.24;100.00;98838.84;5093516;28;20028;-68
2023/11/28 05:07:26;;;;;;;26.92;12.75;;;;;;;0.39;100.00;98837.94;5109445;27;20020;-68
2023/11/28 05:09:51;;;;;;;25.15;13.63;;;;;;;0.54;100.00;98825.19;5111371;28;20473;-68
2023/11/28 05:12:17;;;;;;;27.10;15.88;;;;;;;0.49;100.00;98817.00;5111644;28;20019;-68
2023/11/28 05:14:42;;;;;;;22.63;13.73;;;;;;;0.55;100.00;98802.06;5093971;28;20114;-68
2023/11/28 05:17:08;;;;;;;25.77;15.32;;;;;;;0.13;100.00;98799.56;5093976;28;20019;-68
2023/11/28 05:19:34;;;;;;;28.85;16.13;;;;;;;0.12;100.00;98805.31;5113114;28;20028;-68
2023/11/28 05:22:00;;;;;;;31.05;16.40;;;;;;;0.05;100.00;98802.03;5112311;28;20020;-68
2023/11/28 05:24:25;;;;;;;35.42;21.45;;;;;;;0.36;100.00;98816.50;5093882;28;20122;-68
2023/11/28 05:26:51;;;;;;;32.55;20.85;;;;;;;0.30;100.00;98817.63;5109393;28;20051;-68
2023/11/28 05:29:16;;;;;;;41.22;22.52;;;;;;;0.15;100.00;98804.75;5110365;28;20105;-68
2023/11/28 05:31:42;;;;;;;38.78;22.55;;;;;;;0.14;100.00;98822.38;5089109;28;20040;-68
2023/11/28 05:34:07;;;;;;;48.97;28.13;;;;;;;0.22;100.00;98804.44;5102170;28;20039;-68
2023/11/28 05:36:32;;;;;;;46.58;25.17;;;;;;;0.26;100.00;98803.59;5110315;27;20072;-68
2023/11/28 05:39:00;;;;;;;35.40;21.83;;;;;;;0.46;100.00;98792.75;5102201;28;20019;-68
2023/11/28 05:41:25;;;;;;;50.90;26.88;;;;;;;0.16;100.00;98797.34;5106947;28;20139;-68
2023/11/28 05:43:51;;;;;;;44.78;24.60;;;;;;;0.32;100.00;98795.34;5081274;28;20540;-68
2023/11/28 05:46:16;;;;;;;36.70;21.23;;;;;;;0.24;100.00;98758.22;5110014;28;20050;-68
2023/11/28 05:48:42;;;;;;;29.58;19.52;;;;;;;0.02;100.00;98777.88;5107632;28;20027;-68
2023/11/28 05:51:08;;;;;;;28.33;17.05;;;;;;;0.17;100.00;98753.03;5108926;28;20031;-68
2023/11/28 05:53:35;;;;;;;26.08;17.38;;;;;;;0.04;100.00;98750.91;5111671;28;20035;-68
2023/11/28 05:56:02;;;;;;;30.25;16.55;;;;;;;-0.17;100.00;98762.81;5105915;28;20465;-68
2023/11/28 05:58:28;;;;;;;27.48;16.75;;;;;;;-0.11;100.00;98732.56;5092697;28;20132;-69
2023/11/28 06:00:54;;;;;;;35.33;22.95;;;;;;;0.00;100.00;98756.16;5087943;28;20554;-70
2023/11/28 06:03:19;;;;;;;32.15;19.52;;;;;;;0.12;100.00;98729.16;5102445;28;20081;-70
2023/11/28 06:05:45;;;;;;;38.13;20.95;;;;;;;0.24;100.00;98758.22;5093664;28;20065;-70
2023/11/28 06:08:10;;;;;;;32.38;20.63;;;;;;;0.18;100.00;98757.44;5096326;28;20059;-70
2023/11/28 06:10:36;;;;;;;44.25;23.02;;;;;;;0.15;100.00;98752.50;5109531;28;20415;-70
2023/11/28 06:13:01;;;;;;;51.63;25.90;;;;;;;0.41;100.00;98750.44;5102323;28;20031;-70
2023/11/28 06:15:27;;;;;;;52.22;30.10;;;;;;;0.05;100.00;98723.13;5112968;28;20080;-70
2023/11/28 06:17:52;;;;;;;34.53;21.73;;;;;;;0.22;100.00;98741.19;5112447;28;20027;-70
2023/11/28 06:20:20;;;;;;;45.67;29.85;;;;;;;0.30;100.00;98726.00;5111440;28;20028;-70
2023/11/28 06:22:46;;;;;;;42.00;24.52;;;;;;;0.38;100.00;98717.97;5093129;28;20038;-70
2023/11/28 06:25:11;;;;;;;59.90;38.47;;;;;;;0.59;100.00;98739.03;5113362;28;20024;-69
2023/11/28 06:27:37;;;;;;;54.97;33.15;;;;;;;0.34;100.00;98716.88;5098262;28;20042;-69
2023/11/28 06:30:06;;;;;;;33.72;20.95;;;;;;;0.27;100.00;98727.41;5103266;28;20565;-69
2023/11/28 06:32:33;;;;;;;52.10;31.42;;;;;;;0.40;100.00;98740.53;5079590;28;20066;-69
2023/11/28 06:34:58;;;;;;;38.42;23.55;;;;;;;0.61;100.00;98710.13;5082912;28;20023;-69
2023/11/28 06:37:24;;;;;;;33.17;18.92;;;;;;;0.45;100.00;98716.81;5110665;28;20101;-72
2023/11/28 06:39:49;;;;;;;64.50;33.85;;;;;;;0.48;100.00;98708.00;5101235;28;20028;-75
2023/11/28 06:42:16;;;;;;;47.63;23.55;;;;;;;-0.03;100.00;98687.97;5091205;28;20051;-74
2023/11/28 06:44:41;;;;;;;91.68;57.80;;;;;;;-0.04;100.00;98733.06;5091070;28;20029;-72
2023/11/28 06:47:07;;;;;;;53.30;29.92;;;;;;;0.04;100.00;98684.91;5106607;28;20066;-71
2023/11/28 06:49:32;;;;;;;40.95;22.08;;;;;;;-0.15;100.00;98669.88;5108761;28;20028;-71
2023/11/28 06:51:59;;;;;;;47.42;27.27;;;;;;;-0.19;100.00;98712.81;5105036;28;20035;-73
2023/11/28 06:54:25;;;;;;;38.03;22.20;;;;;;;-0.01;100.00;98700.34;5107656;28;20062;-71
2023/11/28 06:56:50;;;;;;;115.20;70.45;;;;;;;-0.02;100.00;98711.59;5108728;28;20055;-71
2023/11/28 06:59:16;;;;;;;209.65;136.57;;;;;;;0.24;100.00;98717.78;5103275;28;20024;-72
2023/11/28 07:01:41;;;;;;;76.47;50.97;;;;;;;0.36;100.00;98689.94;5079810;28;20034;-72
2023/11/28 07:04:07;;;;;;;55.65;31.75;;;;;;;0.05;100.00;98678.28;5106730;28;20557;-74
2023/11/28 07:06:32;;;;;;;54.33;30.65;;;;;;;0.30;100.00;98699.31;5109102;28;20027;-72
2023/11/28 07:08:58;;;;;;;46.83;27.17;;;;;;;0.51;100.00;98688.16;5103901;28;20027;-68
2023/11/28 07:11:23;;;;;;;33.45;21.20;;;;;;;0.42;100.00;98679.69;5092375;28;20023;-70
2023/11/28 07:13:50;;;;;;;43.10;21.50;;;;;;;0.46;100.00;98685.44;5085034;28;20024;-70
2023/11/28 07:16:17;;;;;;;35.78;18.85;;;;;;;0.47;100.00;98687.91;5086903;28;20495;-69
2023/11/28 07:18:43;;;;;;;40.33;26.15;;;;;;;0.59;100.00;98690.28;5087178;28;20114;-69
2023/11/28 07:21:10;;;;;;;69.35;46.15;;;;;;;0.89;100.00;98682.03;5091170;28;20054;-69
2023/11/28 07:23:37;;;;;;;50.33;26.52;;;;;;;1.01;100.00;98690.75;5101484;28;20573;-71
2023/11/28 07:26:04;;;;;;;43.83;24.42;;;;;;;1.01;99.27;98663.19;5107957;28;20024;-70
2023/11/28 07:28:30;;;;;;;40.10;24.63;;;;;;;0.93;99.21;98644.56;5091590;28;20035;-71
2023/11/28 07:30:56;;;;;;;35.25;24.33;;;;;;;0.88;100.00;98664.72;5107745;28;20426;-71
2023/11/28 07:33:22;;;;;;;52.75;26.08;;;;;;;0.93;99.57;98648.13;5083697;28;20496;-69
2023/11/28 07:35:48;;;;;;;77.90;39.70;;;;;;;0.60;100.00;98634.13;5105587;28;20031;-69
2023/11/28 07:38:13;;;;;;;44.92;25.85;;;;;;;0.52;100.00;98640.28;5102759;28;20442;-68
2023/11/28 07:40:40;;;;;;;33.90;20.95;;;;;;;0.70;100.00;98616.72;5104591;28;20050;-70
2023/11/28 07:43:06;;;;;;;40.03;21.90;;;;;;;0.63;100.00;98614.31;5085879;28;20019;-70
2023/11/28 07:45:32;;;;;;;37.40;18.98;;;;;;;0.55;100.00;98607.50;5106908;28;20032;-69
2023/11/28 07:47:57;;;;;;;42.47;22.33;;;;;;;0.73;100.00;98623.56;5081263;28;20031;-69
2023/11/28 07:50:26;;;;;;;37.58;21.50;;;;;;;0.70;100.00;98614.75;5108137;28;20036;-69
2023/11/28 07:52:52;;;;;;;30.25;20.00;;;;;;;0.79;100.00;98606.72;5086925;28;20434;-69
2023/11/28 07:55:17;;;;;;;37.83;21.13;;;;;;;0.86;100.00;98600.03;5093764;28;20020;-69
2023/11/28 07:57:44;;;;;;;37.72;20.77;;;;;;;0.90;100.00;98604.66;5077125;28;20406;-69
2023/11/28 08:00:10;;;;;;;37.10;22.65;;;;;;;1.02;99.02;98600.69;5080744;28;20020;-70
2023/11/28 08:02:36;;;;;;;43.55;21.38;;;;;;;1.05;97.41;98589.06;5094670;28;20026;-70
2023/11/28 08:05:03;;;;;;;36.85;20.98;;;;;;;0.89;97.66;98583.75;5094115;28;20027;-70
2023/11/28 08:07:30;;;;;;;36.65;21.25;;;;;;;1.07;98.07;98590.44;5074950;28;20035;-70
2023/11/28 08:09:55;;;;;;;39.47;23.25;;;;;;;1.21;96.98;98598.81;5073844;28;20028;-70
2023/11/28 08:12:20;;;;;;;38.17;22.20;;;;;;;1.25;96.89;98574.22;5074441;28;20096;-71
2023/11/28 08:14:47;;;;;;;39.10;21.42;;;;;;;1.03;97.12;98572.03;5097256;28;20055;-70
2023/11/28 08:17:12;;;;;;;39.85;20.92;;;;;;;1.05;98.11;98594.59;5091923;28;20103;-70
2023/11/28 08:19:37;;;;;;;49.55;30.25;;;;;;;1.05;98.16;98583.56;5088323;28;20480;-70
2023/11/28 08:22:03;;;;;;;47.45;25.85;;;;;;;1.08;98.55;98581.06;5106231;28;20031;-70
2023/11/28 08:24:29;;;;;;;46.90;25.83;;;;;;;1.15;98.47;98596.38;5097218;28;20028;-70
2023/11/28 08:26:54;;;;;;;42.88;28.85;;;;;;;0.88;99.92;98606.06;5093381;28;20024;-70
2023/11/28 08:29:20;;;;;;;47.47;28.17;;;;;;;0.76;100.00;98593.50;5097187;28;20028;-70
2023/11/28 08:31:46;;;;;;;54.80;27.45;;;;;;;0.76;100.00;98606.47;5078981;28;20072;-70
2023/11/28 08:34:11;;;;;;;44.53;24.58;;;;;;;0.67;100.00;98579.56;5102349;28;20024;-70
2023/11/28 08:36:36;;;;;;;64.70;31.88;;;;;;;0.77;100.00;98575.06;5086886;28;20035;-70
2023/11/28 08:39:05;;;;;;;48.65;28.05;;;;;;;0.48;100.00;98560.22;5111860;28;20541;-70
2023/11/28 08:41:30;;;;;;;50.05;27.70;;;;;;;0.52;100.00;98564.03;5092620;28;20131;-71
2023/11/28 08:43:56;;;;;;;49.40;27.20;;;;;;;0.62;100.00;98549.34;5112014;28;20122;-70
2023/11/28 08:46:21;;;;;;;47.00;26.48;;;;;;;0.74;100.00;98537.13;5108585;28;20411;-70
2023/11/28 08:48:48;;;;;;;43.67;23.73;;;;;;;0.86;100.00;98534.78;5104520;28;20432;-70
2023/11/28 08:51:13;;;;;;;57.75;27.73;;;;;;;0.48;100.00;98526.38;5097913;28;20024;-70
2023/11/28 08:53:39;;;;;;;45.47;27.45;;;;;;;0.69;100.00;98504.97;5092587;28;20024;-70
2023/11/28 08:56:05;;;;;;;40.72;23.25;;;;;;;0.60;100.00;98510.28;5075734;28;20039;-71
2023/11/28 08:58:30;;;;;;;98.95;49.08;;;;;;;0.66;100.00;98513.78;5101601;28;20031;-70
2023/11/28 09:00:56;;;;;;;74.63;28.95;;;;;;;0.72;100.00;98489.78;5082270;28;20043;-70
2023/11/28 09:03:23;;;;;;;76.10;29.38;;;;;;;0.59;100.00;98478.34;5101563;28;20487;-70
2023/11/28 09:05:48;;;;;;;37.05;18.67;;;;;;;0.76;100.00;98480.63;5079395;28;20027;-70
2023/11/28 09:08:14;;;;;;;34.33;20.35;;;;;;;0.98;100.00;98471.84;5083544;28;20068;-71
2023/11/28 09:10:39;;;;;;;50.60;26.02;;;;;;;0.76;100.00;98431.09;5101949;28;20059;-69
2023/11/28 09:13:05;;;;;;;31.77;18.30;;;;;;;0.58;100.00;98449.19;5094542;28;20078;-70
2023/11/28 09:15:30;;;;;;;32.50;17.17;;;;;;;0.72;99.71;98435.56;5100474;28;20082;-70
2023/11/28 09:17:56;;;;;;;25.90;15.40;;;;;;;0.72;99.14;98420.97;5108561;28;20445;-70
2023/11/28 09:20:21;;;;;;;30.10;18.35;;;;;;;0.89;97.94;98407.53;5107649;28;20035;-70
2023/11/28 09:22:47;;;;;;;31.98;20.70;;;;;;;0.84;97.82;98413.91;5092377;28;20035;-70
2023/11/28 09:25:13;;;;;;;42.88;30.02;;;;;;;1.03;97.74;98421.38;5111791;28;20042;-71
2023/11/28 09:27:39;;;;;;;37.75;21.60;;;;;;;1.21;97.02;98422.50;5112149;28;20032;-71
2023/11/28 09:30:05;;;;;;;45.10;22.15;;;;;;;1.28;96.93;98415.78;5090689;28;20034;-71
2023/11/28 09:32:31;;;;;;;30.88;17.25;;;;;;;1.43;96.21;98400.94;5107382;28;20106;-71
2023/11/28 09:34:56;;;;;;;32.45;20.20;;;;;;;1.52;95.18;98388.91;5079736;28;20069;-71
2023/11/28 09:37:22;;;;;;;37.00;19.63;;;;;;;1.68;95.33;98383.13;5094634;28;20514;-71
2023/11/28 09:39:47;;;;;;;30.45;17.77;;;;;;;1.68;94.46;98369.34;5109201;28;20036;-71
2023/11/28 09:42:14;;;;;;;35.33;18.63;;;;;;;1.84;94.35;98380.94;5081819;28;20040;-71
2023/11/28 09:44:45;;;;;;;40.08;19.80;;;;;;;1.78;93.89;98366.41;5073506;28;20511;-70
2023/11/28 09:47:11;;;;;;;32.42;19.13;;;;;;;1.71;95.61;98360.50;5105315;28;20023;-70
2023/11/28 09:49:41;;;;;;;29.02;15.63;;;;;;;1.90;94.40;98359.59;5101897;28;20031;-70
2023/11/28 09:52:07;;;;;;;37.35;16.55;;;;;;;1.94;93.89;98338.56;5105965;28;20407;-71
2023/11/28 09:54:34;;;;;;;31.38;18.38;;;;;;;2.00;94.07;98342.84;5101331;28;20024;-71
2023/11/28 09:57:01;;;;;;;30.42;15.23;;;;;;;1.94;92.50;98330.28;5100841;28;20548;-70
2023/11/28 09:59:29;;;;;;;25.20;16.42;;;;;;;1.63;95.25;98336.38;5100164;28;20040;-70
2023/11/28 10:01:55;;;;;;;34.28;19.92;;;;;;;1.94;94.34;98330.28;5083511;28;20089;-70
2023/11/28 10:04:22;;;;;;;30.55;19.23;;;;;;;1.78;94.41;98299.44;5095211;28;20036;-70
2023/11/28 10:06:49;;;;;;;45.00;19.83;;;;;;;1.81;95.15;98315.38;5096392;28;20504;-70
2023/11/28 10:09:16;;;;;;;30.63;17.10;;;;;;;1.94;93.89;98288.94;5085254;28;20485;-70
2023/11/28 10:11:42;;;;;;;76.72;26.83;;;;;;;1.99;93.27;98305.34;5106197;28;20419;-72
2023/11/28 10:14:08;;;;;;;38.58;19.50;;;;;;;2.04;93.01;98296.97;5092069;28;20605;-70
2023/11/28 10:16:41;;;;;;;35.42;17.38;;;;;;;2.22;91.12;98284.19;5093277;28;20070;-71
2023/11/28 10:19:07;;;;;;;25.88;15.65;;;;;;;2.21;90.75;98265.19;5082152;28;20066;-70
2023/11/28 10:21:33;;;;;;;25.13;13.95;;;;;;;2.28;90.93;98251.78;5067865;28;20028;-70
2023/11/28 10:23:59;;;;;;;39.25;22.73;;;;;;;2.29;89.59;98253.41;5095636;28;20059;-71
2023/11/28 10:26:24;;;;;;;158.45;75.57;;;;;;;2.63;89.39;98256.81;5093142;28;20035;-72
2023/11/28 10:28:50;;;;;;;110.18;53.80;;;;;;;2.79;88.56;98238.75;5094324;28;20035;-71
2023/11/28 10:31:18;;;;;;;29.58;18.05;;;;;;;3.00;87.83;98226.38;5090934;28;20522;-72
2023/11/28 10:33:44;;;;;;;33.50;16.63;;;;;;;3.12;86.02;98223.84;5088434;28;20031;-73
2023/11/28 10:36:10;;;;;;;38.00;19.25;;;;;;;3.27;85.32;98217.09;5088499;28;20031;-71
2023/11/28 10:38:37;;;;;;;24.45;14.10;;;;;;;3.30;85.30;98205.41;5107117;28;20028;-72
2023/11/28 10:41:03;;;;;;;20.98;13.45;;;;;;;3.55;84.63;98202.28;5106618;28;20036;-71
2023/11/28 10:43:29;;;;;;;66.40;36.05;;;;;;;3.76;81.88;98194.19;5101950;28;20593;-70
2023/11/28 10:45:57;;;;;;;30.65;17.35;;;;;;;3.61;80.33;98165.03;5090225;28;20063;-72
2023/11/28 10:48:22;;;;;;;28.83;14.65;;;;;;;3.49;82.66;98158.16;5075880;28;20024;-71
2023/11/28 10:50:49;;;;;;;22.42;16.27;;;;;;;3.52;84.00;98153.94;5101844;28;20035;-72
2023/11/28 10:53:17;;;;;;;17.92;12.00;;;;;;;3.50;83.04;98159.00;5095163;28;20035;-73
2023/11/28 10:55:49;;;;;;;24.98;11.45;;;;;;;3.42;85.13;98134.88;5102650;28;20518;-72
2023/11/28 10:58:16;;;;;;;19.63;11.15;;;;;;;3.33;85.34;98141.22;5087057;28;20155;-72
2023/11/28 11:00:44;;;;;;;27.88;19.33;;;;;;;3.38;84.68;98137.50;5103494;28;20444;-73
2023/11/28 11:03:13;;;;;;;26.42;21.10;;;;;;;3.35;84.51;98116.84;5071517;28;20058;-73
2023/11/28 11:05:39;;;;;;;31.35;17.33;;;;;;;3.23;84.50;98114.66;5107957;28;20484;-74
2023/11/28 11:08:04;;;;;;;37.50;22.35;;;;;;;3.07;86.12;98100.44;5105816;28;20035;-74
2023/11/28 11:10:30;;;;;;;31.52;17.27;;;;;;;3.34;85.23;98098.63;5088024;28;20567;-73
2023/11/28 11:13:25;;;;;;;106.15;54.50;;;;;;;3.46;86.80;98088.91;5088067;28;20460;-75